Main page
METAR-TAF:

METAR-TAF

Airports :

Marham, England

RAF Marham

latitude: 52-39N, longitude: 000-34E, elevation: 23 m

Current weather observation

The report was made 28 minutes ago, at 06:50 UTC
Wind 8 kt from the East/Southeast
Temperature 18°C
Humidity 73%
Pressure 1021 hPa
Visibility 10 km or more
no clouds below 1500 m and no cumulonimbus

METAR: EGYM 260650Z 12008KT CAVOK 18/13 Q1021 BLU NOSIG

Time: 08:18 (07:18 UTC)

Forecast

The report was made 2 hours and 32 minutes ago, at 04:46 UTC
Forecast valid from 26 at 06 UTC to 26 at 15 UTC
Wind 10 kt from the Southeast
Visibility 10 km or more
no clouds below 1500 m and no cumulonimbus

TAF: EGYM 260446Z 2606/2615 13010KT CAVOK

Weather observations and forecasts of more than 4000 airports (METAR and TAF reports).

The available stations are represented by yellow and red dots on the map.

Hover mouse over dot to see the name of the station.

Then click to see weather observations and forecasts.

To change the map : click on the green buttons with a black cross to zoom in, on the green button with a dash to zoom out, or on the green arrows for adjacent maps.


METAR-TAF: